sensor_id;sensor_type;location;lat;lon;timestamp;pressure;altitude;pressure_sealevel;temperature;humidity
967;BME280;56108;48.730;9.304;2023-06-14T00:00:25;97039.38;;;14.04;59.50
967;BME280;56108;48.730;9.304;2023-06-14T00:02:33;97038.47;;;14.33;58.80
967;BME280;56108;48.730;9.304;2023-06-14T00:04:42;97040.75;;;14.28;57.55
967;BME280;56108;48.730;9.304;2023-06-14T00:06:50;97046.25;;;14.17;57.64
967;BME280;56108;48.730;9.304;2023-06-14T00:08:59;97041.63;;;13.99;58.62
967;BME280;56108;48.730;9.304;2023-06-14T00:11:07;97027.94;;;13.93;61.16
967;BME280;56108;48.730;9.304;2023-06-14T00:13:17;97035.28;;;14.10;58.83
967;BME280;56108;48.730;9.304;2023-06-14T00:15:25;97035.41;;;14.18;56.72
967;BME280;56108;48.730;9.304;2023-06-14T00:17:36;97035.38;;;14.38;56.69
967;BME280;56108;48.730;9.304;2023-06-14T00:19:44;97031.75;;;14.09;57.69
967;BME280;56108;48.730;9.304;2023-06-14T00:21:52;97034.28;;;13.92;57.99
967;BME280;56108;48.730;9.304;2023-06-14T00:24:02;97024.00;;;13.77;58.38
967;BME280;56108;48.730;9.304;2023-06-14T00:26:10;97035.84;;;13.75;58.46
967;BME280;56108;48.730;9.304;2023-06-14T00:28:23;97025.28;;;13.64;59.15
967;BME280;56108;48.730;9.304;2023-06-14T00:30:31;97031.72;;;13.61;59.15
967;BME280;56108;48.730;9.304;2023-06-14T00:32:39;97028.66;;;13.75;61.01
967;BME280;56108;48.730;9.304;2023-06-14T00:34:48;97031.31;;;13.66;59.98
967;BME280;56108;48.730;9.304;2023-06-14T00:36:56;97020.19;;;13.61;62.02
967;BME280;56108;48.730;9.304;2023-06-14T00:39:04;97028.22;;;13.70;61.13
967;BME280;56108;48.730;9.304;2023-06-14T00:41:13;97019.94;;;13.64;61.07
967;BME280;56108;48.730;9.304;2023-06-14T00:43:23;97018.34;;;13.51;60.95
967;BME280;56108;48.730;9.304;2023-06-14T00:45:31;97024.56;;;13.42;60.66
967;BME280;56108;48.730;9.304;2023-06-14T00:47:43;97025.50;;;13.41;60.38
967;BME280;56108;48.730;9.304;2023-06-14T00:49:54;97015.25;;;13.37;61.44
967;BME280;56108;48.730;9.304;2023-06-14T00:52:03;97019.19;;;13.32;61.76
967;BME280;56108;48.730;9.304;2023-06-14T00:54:13;97025.38;;;13.33;62.10
967;BME280;56108;48.730;9.304;2023-06-14T00:56:21;97025.81;;;13.38;62.12
967;BME280;56108;48.730;9.304;2023-06-14T00:58:32;97021.72;;;13.34;63.45
967;BME280;56108;48.730;9.304;2023-06-14T01:00:42;97018.47;;;13.40;62.95
967;BME280;56108;48.730;9.304;2023-06-14T01:02:50;97023.41;;;13.35;62.95
967;BME280;56108;48.730;9.304;2023-06-14T01:04:59;97032.31;;;13.15;62.52
967;BME280;56108;48.730;9.304;2023-06-14T01:07:11;97029.19;;;13.00;64.07
967;BME280;56108;48.730;9.304;2023-06-14T01:09:41;97028.75;;;12.95;64.58
967;BME280;56108;48.730;9.304;2023-06-14T01:11:59;97020.16;;;12.91;65.89
967;BME280;56108;48.730;9.304;2023-06-14T01:14:13;97026.94;;;12.95;65.95
967;BME280;56108;48.730;9.304;2023-06-14T01:16:23;97025.47;;;12.82;66.91
967;BME280;56108;48.730;9.304;2023-06-14T01:18:37;97027.28;;;12.81;67.39
967;BME280;56108;48.730;9.304;2023-06-14T01:20:56;97024.75;;;12.79;68.49
967;BME280;56108;48.730;9.304;2023-06-14T01:23:07;97029.66;;;12.74;68.45
967;BME280;56108;48.730;9.304;2023-06-14T01:25:17;97025.56;;;12.70;69.45
967;BME280;56108;48.730;9.304;2023-06-14T01:27:28;97025.91;;;12.56;69.03
967;BME280;56108;48.730;9.304;2023-06-14T01:29:37;97025.59;;;12.49;70.19
967;BME280;56108;48.730;9.304;2023-06-14T01:31:53;97026.84;;;12.45;69.97
967;BME280;56108;48.730;9.304;2023-06-14T01:34:01;97030.66;;;12.52;71.54
967;BME280;56108;48.730;9.304;2023-06-14T01:36:10;97029.75;;;12.42;71.71
967;BME280;56108;48.730;9.304;2023-06-14T01:38:22;97028.06;;;12.41;72.03
967;BME280;56108;48.730;9.304;2023-06-14T01:40:31;97026.31;;;12.31;71.66
967;BME280;56108;48.730;9.304;2023-06-14T01:42:41;97026.41;;;12.19;71.85
967;BME280;56108;48.730;9.304;2023-06-14T01:44:51;97021.72;;;12.12;72.68
967;BME280;56108;48.730;9.304;2023-06-14T01:47:00;97027.56;;;12.06;73.35
967;BME280;56108;48.730;9.304;2023-06-14T01:49:09;97020.44;;;12.06;73.53
967;BME280;56108;48.730;9.304;2023-06-14T01:51:16;97027.31;;;12.09;73.61
967;BME280;56108;48.730;9.304;2023-06-14T01:53:28;97024.84;;;12.17;74.42
967;BME280;56108;48.730;9.304;2023-06-14T01:55:36;97021.97;;;12.09;74.54
967;BME280;56108;48.730;9.304;2023-06-14T01:57:48;97029.75;;;12.00;74.89
967;BME280;56108;48.730;9.304;2023-06-14T01:59:56;97029.56;;;11.92;74.76
967;BME280;56108;48.730;9.304;2023-06-14T02:02:05;97025.94;;;11.93;74.62
967;BME280;56108;48.730;9.304;2023-06-14T02:04:13;97024.09;;;11.94;75.04
967;BME280;56108;48.730;9.304;2023-06-14T02:06:21;97030.19;;;11.96;74.64
967;BME280;56108;48.730;9.304;2023-06-14T02:08:31;97026.16;;;12.01;76.47
967;BME280;56108;48.730;9.304;2023-06-14T02:10:39;97032.72;;;11.97;75.28
967;BME280;56108;48.730;9.304;2023-06-14T02:12:47;97038.19;;;11.85;76.35
967;BME280;56108;48.730;9.304;2023-06-14T02:14:56;97031.66;;;11.77;76.46
967;BME280;56108;48.730;9.304;2023-06-14T02:17:04;97032.41;;;11.68;77.07
967;BME280;56108;48.730;9.304;2023-06-14T02:19:13;97032.94;;;11.62;77.09
967;BME280;56108;48.730;9.304;2023-06-14T02:21:21;97028.34;;;11.64;77.32
967;BME280;56108;48.730;9.304;2023-06-14T02:23:31;97031.13;;;11.63;76.76
967;BME280;56108;48.730;9.304;2023-06-14T02:25:40;97026.75;;;11.62;76.21
967;BME280;56108;48.730;9.304;2023-06-14T02:27:49;97029.81;;;11.57;76.81
967;BME280;56108;48.730;9.304;2023-06-14T02:29:57;97027.59;;;11.62;77.01
967;BME280;56108;48.730;9.304;2023-06-14T02:32:06;97026.69;;;11.84;78.40
967;BME280;56108;48.730;9.304;2023-06-14T02:34:16;97034.22;;;11.90;77.04
967;BME280;56108;48.730;9.304;2023-06-14T02:36:25;97035.75;;;11.93;76.62
967;BME280;56108;48.730;9.304;2023-06-14T02:38:39;97031.06;;;11.85;77.40
967;BME280;56108;48.730;9.304;2023-06-14T02:40:47;97035.09;;;11.68;77.75
967;BME280;56108;48.730;9.304;2023-06-14T02:42:55;97033.91;;;11.61;78.27
967;BME280;56108;48.730;9.304;2023-06-14T02:45:04;97026.31;;;11.57;78.32
967;BME280;56108;48.730;9.304;2023-06-14T02:47:12;97027.50;;;11.53;79.46
967;BME280;56108;48.730;9.304;2023-06-14T02:49:21;97028.88;;;11.47;80.22
967;BME280;56108;48.730;9.304;2023-06-14T02:51:30;97023.06;;;11.42;80.53
967;BME280;56108;48.730;9.304;2023-06-14T02:53:41;97022.22;;;11.41;81.31
967;BME280;56108;48.730;9.304;2023-06-14T02:55:49;97026.09;;;11.37;81.80
967;BME280;56108;48.730;9.304;2023-06-14T02:57:59;97028.31;;;11.32;81.55
967;BME280;56108;48.730;9.304;2023-06-14T03:00:08;97026.47;;;11.33;81.14
967;BME280;56108;48.730;9.304;2023-06-14T03:02:24;97028.31;;;11.32;81.06
967;BME280;56108;48.730;9.304;2023-06-14T03:04:32;97026.97;;;11.27;81.49
967;BME280;56108;48.730;9.304;2023-06-14T03:06:49;97027.97;;;11.26;81.93
967;BME280;56108;48.730;9.304;2023-06-14T03:09:03;97023.97;;;11.20;83.32
967;BME280;56108;48.730;9.304;2023-06-14T03:11:17;97037.44;;;11.18;84.21
967;BME280;56108;48.730;9.304;2023-06-14T03:13:26;97030.78;;;11.13;84.76
967;BME280;56108;48.730;9.304;2023-06-14T03:15:38;97032.00;;;11.09;85.70
967;BME280;56108;48.730;9.304;2023-06-14T03:17:46;97038.16;;;11.09;85.89
967;BME280;56108;48.730;9.304;2023-06-14T03:19:55;97037.31;;;11.09;85.55
967;BME280;56108;48.730;9.304;2023-06-14T03:22:04;97040.13;;;11.07;86.18
967;BME280;56108;48.730;9.304;2023-06-14T03:24:18;97032.38;;;11.04;87.01
967;BME280;56108;48.730;9.304;2023-06-14T03:26:26;97036.81;;;11.15;87.04
967;BME280;56108;48.730;9.304;2023-06-14T03:28:37;97044.09;;;11.13;88.04
967;BME280;56108;48.730;9.304;2023-06-14T03:30:45;97054.84;;;11.11;88.23
967;BME280;56108;48.730;9.304;2023-06-14T03:32:54;97055.84;;;11.10;88.31
967;BME280;56108;48.730;9.304;2023-06-14T03:35:06;97058.50;;;11.10;88.41
967;BME280;56108;48.730;9.304;2023-06-14T03:37:16;97052.81;;;11.15;88.82
967;BME280;56108;48.730;9.304;2023-06-14T03:39:30;97061.03;;;11.23;88.49
967;BME280;56108;48.730;9.304;2023-06-14T03:41:39;97063.53;;;11.36;89.26
967;BME280;56108;48.730;9.304;2023-06-14T03:43:46;97054.94;;;11.43;89.71
967;BME280;56108;48.730;9.304;2023-06-14T03:45:55;97052.19;;;11.66;88.49
967;BME280;56108;48.730;9.304;2023-06-14T03:48:03;97062.13;;;11.64;88.09
967;BME280;56108;48.730;9.304;2023-06-14T03:50:14;97059.69;;;11.72;89.13
967;BME280;56108;48.730;9.304;2023-06-14T03:52:23;97060.16;;;11.77;89.04
967;BME280;56108;48.730;9.304;2023-06-14T03:54:33;97069.13;;;11.76;89.44
967;BME280;56108;48.730;9.304;2023-06-14T03:56:44;97073.22;;;11.91;89.64
967;BME280;56108;48.730;9.304;2023-06-14T03:58:53;97077.75;;;12.00;87.99
967;BME280;56108;48.730;9.304;2023-06-14T04:01:03;97080.25;;;12.13;86.42
967;BME280;56108;48.730;9.304;2023-06-14T04:03:12;97085.22;;;12.39;85.59
967;BME280;56108;48.730;9.304;2023-06-14T04:05:21;97080.78;;;12.70;82.10
967;BME280;56108;48.730;9.304;2023-06-14T04:07:33;97088.34;;;12.95;79.45
967;BME280;56108;48.730;9.304;2023-06-14T04:09:49;97084.09;;;13.64;77.76
967;BME280;56108;48.730;9.304;2023-06-14T04:11:56;97096.25;;;15.02;70.93
967;BME280;56108;48.730;9.304;2023-06-14T04:14:05;97112.34;;;15.94;63.08
967;BME280;56108;48.730;9.304;2023-06-14T04:16:13;97118.84;;;17.41;59.66
967;BME280;56108;48.730;9.304;2023-06-14T04:18:21;97135.56;;;18.70;54.01
967;BME280;56108;48.730;9.304;2023-06-14T04:20:30;97153.22;;;19.77;49.60
967;BME280;56108;48.730;9.304;2023-06-14T04:22:38;97157.53;;;20.79;46.97
967;BME280;56108;48.730;9.304;2023-06-14T04:24:51;97170.31;;;21.46;44.46
967;BME280;56108;48.730;9.304;2023-06-14T04:27:10;97178.44;;;22.05;42.92
967;BME280;56108;48.730;9.304;2023-06-14T04:29:18;97181.00;;;22.43;41.59
967;BME280;56108;48.730;9.304;2023-06-14T04:31:35;97190.63;;;23.03;39.52
967;BME280;56108;48.730;9.304;2023-06-14T04:33:46;97196.00;;;23.74;38.36
967;BME280;56108;48.730;9.304;2023-06-14T04:35:58;97194.69;;;23.98;38.32
967;BME280;56108;48.730;9.304;2023-06-14T04:38:06;97201.03;;;24.60;36.43
967;BME280;56108;48.730;9.304;2023-06-14T04:40:18;97202.72;;;24.19;36.23
967;BME280;56108;48.730;9.304;2023-06-14T04:42:26;97194.34;;;24.62;36.33
967;BME280;56108;48.730;9.304;2023-06-14T04:44:37;97200.25;;;24.25;36.18
967;BME280;56108;48.730;9.304;2023-06-14T04:46:46;97206.03;;;24.50;35.70
967;BME280;56108;48.730;9.304;2023-06-14T04:48:59;97200.50;;;25.04;35.20
967;BME280;56108;48.730;9.304;2023-06-14T04:51:08;97208.09;;;25.48;34.63
967;BME280;56108;48.730;9.304;2023-06-14T04:53:18;97218.19;;;26.46;33.68
967;BME280;56108;48.730;9.304;2023-06-14T04:55:34;97221.97;;;26.38;33.97
967;BME280;56108;48.730;9.304;2023-06-14T04:57:43;97225.91;;;25.51;33.61
967;BME280;56108;48.730;9.304;2023-06-14T04:59:52;97230.59;;;26.48;32.79
967;BME280;56108;48.730;9.304;2023-06-14T05:02:03;97239.34;;;26.64;33.33
967;BME280;56108;48.730;9.304;2023-06-14T05:04:11;97237.25;;;26.59;32.74
967;BME280;56108;48.730;9.304;2023-06-14T05:06:19;97235.22;;;26.35;32.89
967;BME280;56108;48.730;9.304;2023-06-14T05:08:27;97240.22;;;26.58;32.66
967;BME280;56108;48.730;9.304;2023-06-14T05:10:38;97243.50;;;27.93;30.71
967;BME280;56108;48.730;9.304;2023-06-14T05:12:46;97244.25;;;27.56;30.70
967;BME280;56108;48.730;9.304;2023-06-14T05:14:56;97246.59;;;27.21;30.96
967;BME280;56108;48.730;9.304;2023-06-14T05:17:06;97246.13;;;27.24;31.32
967;BME280;56108;48.730;9.304;2023-06-14T05:19:14;97242.59;;;27.49;31.28
967;BME280;56108;48.730;9.304;2023-06-14T05:21:23;97246.84;;;28.38;30.14
967;BME280;56108;48.730;9.304;2023-06-14T05:23:31;97246.16;;;28.24;29.99
967;BME280;56108;48.730;9.304;2023-06-14T05:25:42;97253.97;;;28.76;28.76
967;BME280;56108;48.730;9.304;2023-06-14T05:27:50;97244.50;;;29.08;28.46
967;BME280;56108;48.730;9.304;2023-06-14T05:29:58;97255.66;;;28.77;28.40
967;BME280;56108;48.730;9.304;2023-06-14T05:32:07;97250.16;;;29.25;27.75
967;BME280;56108;48.730;9.304;2023-06-14T05:34:15;97247.88;;;28.55;29.15
967;BME280;56108;48.730;9.304;2023-06-14T05:36:23;97249.88;;;29.15;27.95
967;BME280;56108;48.730;9.304;2023-06-14T05:38:32;97252.13;;;29.18;27.55
967;BME280;56108;48.730;9.304;2023-06-14T05:40:43;97250.63;;;29.64;27.02
967;BME280;56108;48.730;9.304;2023-06-14T05:42:52;97255.28;;;29.63;27.16
967;BME280;56108;48.730;9.304;2023-06-14T05:45:00;97253.22;;;28.69;28.32
967;BME280;56108;48.730;9.304;2023-06-14T05:47:08;97248.13;;;29.62;26.65
967;BME280;56108;48.730;9.304;2023-06-14T05:49:16;97251.34;;;30.06;26.84
967;BME280;56108;48.730;9.304;2023-06-14T05:51:24;97249.50;;;28.63;28.14
967;BME280;56108;48.730;9.304;2023-06-14T05:53:32;97233.97;;;29.35;27.12
967;BME280;56108;48.730;9.304;2023-06-14T05:55:43;97181.72;;;28.58;27.70
967;BME280;56108;48.730;9.304;2023-06-14T05:57:51;97189.56;;;28.55;28.98
967;BME280;56108;48.730;9.304;2023-06-14T05:59:59;97188.19;;;30.41;26.32
967;BME280;56108;48.730;9.304;2023-06-14T06:02:15;97183.50;;;29.78;27.11
967;BME280;56108;48.730;9.304;2023-06-14T06:04:24;97186.25;;;29.67;26.88
967;BME280;56108;48.730;9.304;2023-06-14T06:06:32;97189.34;;;30.57;25.93
967;BME280;56108;48.730;9.304;2023-06-14T06:08:40;97189.50;;;31.36;24.05
967;BME280;56108;48.730;9.304;2023-06-14T06:10:51;97198.41;;;29.94;25.92
967;BME280;56108;48.730;9.304;2023-06-14T06:12:59;97194.63;;;30.87;24.36
967;BME280;56108;48.730;9.304;2023-06-14T06:15:08;97197.81;;;31.41;23.62
967;BME280;56108;48.730;9.304;2023-06-14T06:17:17;97198.66;;;31.76;23.86
967;BME280;56108;48.730;9.304;2023-06-14T06:19:25;97192.81;;;30.12;26.36
967;BME280;56108;48.730;9.304;2023-06-14T06:21:33;97199.34;;;30.63;25.92
967;BME280;56108;48.730;9.304;2023-06-14T06:23:43;97199.91;;;31.51;23.45
967;BME280;56108;48.730;9.304;2023-06-14T06:25:54;97197.69;;;31.82;23.67
967;BME280;56108;48.730;9.304;2023-06-14T06:28:02;97210.66;;;30.38;23.69
967;BME280;56108;48.730;9.304;2023-06-14T06:30:11;97202.44;;;30.67;24.51
967;BME280;56108;48.730;9.304;2023-06-14T06:32:27;97202.38;;;31.19;24.23
967;BME280;56108;48.730;9.304;2023-06-14T06:34:39;97201.16;;;32.11;23.87
967;BME280;56108;48.730;9.304;2023-06-14T06:36:50;97203.03;;;30.29;23.33
967;BME280;56108;48.730;9.304;2023-06-14T06:38:57;97195.91;;;31.42;23.10
967;BME280;56108;48.730;9.304;2023-06-14T06:41:08;97201.09;;;32.28;23.38
967;BME280;56108;48.730;9.304;2023-06-14T06:43:16;97211.00;;;31.11;23.08
967;BME280;56108;48.730;9.304;2023-06-14T06:45:26;97198.47;;;30.46;23.60
967;BME280;56108;48.730;9.304;2023-06-14T06:47:34;97202.75;;;30.42;23.89
967;BME280;56108;48.730;9.304;2023-06-14T06:49:42;97200.13;;;30.47;24.34
967;BME280;56108;48.730;9.304;2023-06-14T06:52:00;97208.81;;;29.38;24.76
967;BME280;56108;48.730;9.304;2023-06-14T06:54:08;97217.03;;;30.67;23.98
967;BME280;56108;48.730;9.304;2023-06-14T06:56:19;97209.00;;;31.68;24.42
967;BME280;56108;48.730;9.304;2023-06-14T06:58:28;97213.63;;;32.57;23.26
967;BME280;56108;48.730;9.304;2023-06-14T07:00:36;97216.84;;;31.77;22.37
967;BME280;56108;48.730;9.304;2023-06-14T07:02:44;97218.31;;;32.18;22.06
967;BME280;56108;48.730;9.304;2023-06-14T07:04:54;97218.25;;;31.62;22.34
967;BME280;56108;48.730;9.304;2023-06-14T07:07:03;97223.31;;;32.60;21.09
967;BME280;56108;48.730;9.304;2023-06-14T07:09:11;97219.94;;;33.88;20.91
967;BME280;56108;48.730;9.304;2023-06-14T07:11:23;97225.41;;;31.30;21.60
967;BME280;56108;48.730;9.304;2023-06-14T07:13:31;97222.66;;;31.30;21.76
967;BME280;56108;48.730;9.304;2023-06-14T07:15:39;97225.66;;;31.16;22.86
967;BME280;56108;48.730;9.304;2023-06-14T07:17:47;97229.31;;;32.57;21.77
967;BME280;56108;48.730;9.304;2023-06-14T07:19:56;97228.59;;;31.89;21.77
967;BME280;56108;48.730;9.304;2023-06-14T07:22:05;97234.59;;;33.88;21.02
967;BME280;56108;48.730;9.304;2023-06-14T07:24:14;97238.84;;;34.01;20.41
967;BME280;56108;48.730;9.304;2023-06-14T07:26:24;97239.28;;;33.93;20.76
967;BME280;56108;48.730;9.304;2023-06-14T07:28:32;97234.34;;;28.24;26.34
967;BME280;56108;48.730;9.304;2023-06-14T07:30:43;97234.28;;;27.87;26.74
967;BME280;56108;48.730;9.304;2023-06-14T07:32:54;97234.78;;;28.94;26.27
967;BME280;56108;48.730;9.304;2023-06-14T07:35:03;97236.34;;;28.72;26.91
967;BME280;56108;48.730;9.304;2023-06-14T07:37:11;97242.44;;;29.34;25.14
967;BME280;56108;48.730;9.304;2023-06-14T07:39:19;97250.34;;;31.57;23.63
967;BME280;56108;48.730;9.304;2023-06-14T07:41:31;97245.91;;;30.82;23.26
967;BME280;56108;48.730;9.304;2023-06-14T07:43:39;97246.34;;;30.50;23.69
967;BME280;56108;48.730;9.304;2023-06-14T07:45:47;97247.31;;;30.84;24.50
967;BME280;56108;48.730;9.304;2023-06-14T07:48:10;97243.66;;;31.36;23.65
967;BME280;56108;48.730;9.304;2023-06-14T07:50:20;97247.34;;;32.86;21.75
967;BME280;56108;48.730;9.304;2023-06-14T07:52:28;97246.88;;;32.12;21.80
967;BME280;56108;48.730;9.304;2023-06-14T07:54:37;97249.47;;;30.30;23.98
967;BME280;56108;48.730;9.304;2023-06-14T07:56:48;97250.28;;;32.80;22.86
967;BME280;56108;48.730;9.304;2023-06-14T07:58:57;97254.63;;;33.19;21.61
967;BME280;56108;48.730;9.304;2023-06-14T08:01:05;97249.09;;;32.92;22.09
967;BME280;56108;48.730;9.304;2023-06-14T08:03:13;97240.03;;;32.53;22.74
967;BME280;56108;48.730;9.304;2023-06-14T08:05:21;97252.44;;;30.92;23.44
967;BME280;56108;48.730;9.304;2023-06-14T08:07:30;97247.41;;;32.47;22.31
967;BME280;56108;48.730;9.304;2023-06-14T08:09:38;97250.41;;;32.68;22.60
967;BME280;56108;48.730;9.304;2023-06-14T08:11:50;97250.22;;;32.53;23.54
967;BME280;56108;48.730;9.304;2023-06-14T08:13:58;97246.16;;;31.09;24.29
967;BME280;56108;48.730;9.304;2023-06-14T08:16:06;97252.00;;;31.12;24.52
967;BME280;56108;48.730;9.304;2023-06-14T08:18:14;97247.63;;;30.48;25.38
967;BME280;56108;48.730;9.304;2023-06-14T08:20:22;97250.19;;;30.14;25.69
967;BME280;56108;48.730;9.304;2023-06-14T08:22:30;97242.16;;;30.01;25.73
967;BME280;56108;48.730;9.304;2023-06-14T08:24:39;97255.97;;;30.64;24.84
967;BME280;56108;48.730;9.304;2023-06-14T08:26:50;97258.69;;;30.88;24.16
967;BME280;56108;48.730;9.304;2023-06-14T08:28:58;97257.94;;;31.50;24.10
967;BME280;56108;48.730;9.304;2023-06-14T08:31:08;97257.50;;;31.12;24.84
967;BME280;56108;48.730;9.304;2023-06-14T08:33:16;97247.09;;;29.03;26.00
967;BME280;56108;48.730;9.304;2023-06-14T08:35:24;97246.94;;;27.88;27.89
967;BME280;56108;48.730;9.304;2023-06-14T08:37:32;97249.28;;;26.45;29.62
967;BME280;56108;48.730;9.304;2023-06-14T08:39:41;97250.00;;;27.17;30.39
967;BME280;56108;48.730;9.304;2023-06-14T08:41:53;97243.19;;;27.82;28.65
967;BME280;56108;48.730;9.304;2023-06-14T08:44:02;97254.47;;;28.29;28.19
967;BME280;56108;48.730;9.304;2023-06-14T08:46:12;97245.56;;;27.47;28.92
967;BME280;56108;48.730;9.304;2023-06-14T08:48:26;97247.47;;;24.58;32.41
967;BME280;56108;48.730;9.304;2023-06-14T08:50:34;97239.16;;;24.66;33.97
967;BME280;56108;48.730;9.304;2023-06-14T08:52:45;97241.50;;;24.00;35.50
967;BME280;56108;48.730;9.304;2023-06-14T08:54:57;97252.28;;;24.56;33.79
967;BME280;56108;48.730;9.304;2023-06-14T08:57:11;97242.72;;;24.73;33.78
967;BME280;56108;48.730;9.304;2023-06-14T08:59:21;97247.47;;;25.26;33.82
967;BME280;56108;48.730;9.304;2023-06-14T09:01:32;97248.50;;;25.32;33.80
967;BME280;56108;48.730;9.304;2023-06-14T09:03:41;97249.28;;;24.99;32.38
967;BME280;56108;48.730;9.304;2023-06-14T09:05:49;97242.88;;;25.60;32.97
967;BME280;56108;48.730;9.304;2023-06-14T09:07:59;97250.94;;;27.29;30.54
967;BME280;56108;48.730;9.304;2023-06-14T09:10:12;97247.66;;;28.75;29.45
967;BME280;56108;48.730;9.304;2023-06-14T09:12:23;97252.91;;;29.79;26.38
967;BME280;56108;48.730;9.304;2023-06-14T09:14:31;97243.13;;;28.07;27.63
967;BME280;56108;48.730;9.304;2023-06-14T09:16:43;97253.59;;;27.11;28.83
967;BME280;56108;48.730;9.304;2023-06-14T09:18:51;97246.66;;;27.15;29.16
967;BME280;56108;48.730;9.304;2023-06-14T09:21:03;97255.28;;;27.12;28.80
967;BME280;56108;48.730;9.304;2023-06-14T09:23:11;97243.56;;;27.36;28.88
967;BME280;56108;48.730;9.304;2023-06-14T09:25:19;97245.75;;;26.18;29.45
967;BME280;56108;48.730;9.304;2023-06-14T09:27:46;97252.75;;;26.65;28.89
967;BME280;56108;48.730;9.304;2023-06-14T09:29:54;97255.44;;;27.17;27.85
967;BME280;56108;48.730;9.304;2023-06-14T09:32:03;97255.88;;;28.39;25.19
967;BME280;56108;48.730;9.304;2023-06-14T09:34:12;97259.44;;;29.24;24.52
967;BME280;56108;48.730;9.304;2023-06-14T09:36:22;97256.59;;;29.84;25.39
967;BME280;56108;48.730;9.304;2023-06-14T09:38:30;97262.69;;;30.45;23.37
967;BME280;56108;48.730;9.304;2023-06-14T09:40:38;97258.88;;;30.46;23.79
967;BME280;56108;48.730;9.304;2023-06-14T09:42:50;97253.63;;;29.32;24.69
967;BME280;56108;48.730;9.304;2023-06-14T09:45:00;97258.81;;;30.18;23.55
967;BME280;56108;48.730;9.304;2023-06-14T09:47:08;97256.97;;;29.76;23.01
967;BME280;56108;48.730;9.304;2023-06-14T09:49:18;97258.84;;;27.69;24.38
967;BME280;56108;48.730;9.304;2023-06-14T09:51:27;97261.03;;;29.97;23.79
967;BME280;56108;48.730;9.304;2023-06-14T09:53:36;97256.00;;;29.82;24.51
967;BME280;56108;48.730;9.304;2023-06-14T09:55:45;97255.50;;;28.53;25.74
967;BME280;56108;48.730;9.304;2023-06-14T09:57:57;97256.31;;;29.09;25.43
967;BME280;56108;48.730;9.304;2023-06-14T10:00:09;97257.47;;;30.44;24.97
967;BME280;56108;48.730;9.304;2023-06-14T10:02:22;97270.50;;;31.29;22.36
967;BME280;56108;48.730;9.304;2023-06-14T10:04:34;97265.47;;;30.97;22.43
967;BME280;56108;48.730;9.304;2023-06-14T10:06:45;97263.34;;;32.29;21.00
967;BME280;56108;48.730;9.304;2023-06-14T10:08:56;97255.50;;;27.10;26.30
967;BME280;56108;48.730;9.304;2023-06-14T10:11:06;97252.72;;;25.67;29.69
967;BME280;56108;48.730;9.304;2023-06-14T10:13:17;97249.59;;;24.63;31.70
967;BME280;56108;48.730;9.304;2023-06-14T10:15:32;97244.03;;;23.46;33.64
967;BME280;56108;48.730;9.304;2023-06-14T10:17:48;97243.59;;;23.21;34.05
967;BME280;56108;48.730;9.304;2023-06-14T10:20:10;97246.09;;;24.82;32.56
967;BME280;56108;48.730;9.304;2023-06-14T10:22:29;97252.91;;;26.12;29.38
967;BME280;56108;48.730;9.304;2023-06-14T10:24:41;97252.22;;;26.30;28.79
967;BME280;56108;48.730;9.304;2023-06-14T10:26:50;97243.84;;;26.25;30.29
967;BME280;56108;48.730;9.304;2023-06-14T10:29:09;97235.34;;;27.36;29.88
967;BME280;56108;48.730;9.304;2023-06-14T10:31:17;97246.00;;;29.34;28.42
967;BME280;56108;48.730;9.304;2023-06-14T10:33:26;97233.84;;;27.65;27.39
967;BME280;56108;48.730;9.304;2023-06-14T10:35:34;97237.22;;;28.84;25.99
967;BME280;56108;48.730;9.304;2023-06-14T10:37:46;97230.09;;;27.35;26.21
967;BME280;56108;48.730;9.304;2023-06-14T10:39:54;97236.19;;;28.67;26.32
967;BME280;56108;48.730;9.304;2023-06-14T10:42:02;97245.34;;;28.42;25.51
967;BME280;56108;48.730;9.304;2023-06-14T10:44:36;97237.97;;;27.49;27.21
967;BME280;56108;48.730;9.304;2023-06-14T10:46:46;97245.53;;;26.84;27.11
967;BME280;56108;48.730;9.304;2023-06-14T10:48:57;97242.94;;;28.27;27.30
967;BME280;56108;48.730;9.304;2023-06-14T10:51:15;97240.44;;;28.44;26.90
967;BME280;56108;48.730;9.304;2023-06-14T10:53:25;97242.34;;;28.25;25.88
967;BME280;56108;48.730;9.304;2023-06-14T10:55:35;97243.31;;;28.31;26.42
967;BME280;56108;48.730;9.304;2023-06-14T10:57:45;97240.31;;;28.57;26.56
967;BME280;56108;48.730;9.304;2023-06-14T11:00:00;97231.38;;;29.52;26.83
967;BME280;56108;48.730;9.304;2023-06-14T11:02:35;97234.69;;;29.43;24.82
967;BME280;56108;48.730;9.304;2023-06-14T11:04:52;97235.63;;;29.36;25.06
967;BME280;56108;48.730;9.304;2023-06-14T11:07:15;97229.50;;;28.63;26.25
967;BME280;56108;48.730;9.304;2023-06-14T11:10:01;97225.66;;;27.90;26.78
967;BME280;56108;48.730;9.304;2023-06-14T11:12:15;97223.97;;;27.39;27.33
967;BME280;56108;48.730;9.304;2023-06-14T11:14:23;97232.09;;;27.21;26.86
967;BME280;56108;48.730;9.304;2023-06-14T11:16:34;97225.81;;;27.20;29.53
967;BME280;56108;48.730;9.304;2023-06-14T11:18:42;97231.41;;;27.57;28.92
967;BME280;56108;48.730;9.304;2023-06-14T11:20:51;97216.72;;;26.50;27.56
967;BME280;56108;48.730;9.304;2023-06-14T11:23:00;97236.31;;;26.14;27.31
967;BME280;56108;48.730;9.304;2023-06-14T11:25:09;97232.81;;;26.65;28.69
967;BME280;56108;48.730;9.304;2023-06-14T11:27:17;97226.81;;;27.51;28.16
967;BME280;56108;48.730;9.304;2023-06-14T11:29:25;97230.41;;;27.76;27.81
967;BME280;56108;48.730;9.304;2023-06-14T11:31:43;97232.81;;;26.65;27.76
967;BME280;56108;48.730;9.304;2023-06-14T11:33:53;97230.66;;;26.09;29.06
967;BME280;56108;48.730;9.304;2023-06-14T11:36:02;97229.69;;;25.50;27.86
967;BME280;56108;48.730;9.304;2023-06-14T11:38:13;97221.06;;;25.86;30.34
967;BME280;56108;48.730;9.304;2023-06-14T11:40:23;97220.88;;;25.35;28.63
967;BME280;56108;48.730;9.304;2023-06-14T11:42:32;97225.69;;;25.86;29.95
967;BME280;56108;48.730;9.304;2023-06-14T11:44:40;97219.81;;;25.69;29.24
967;BME280;56108;48.730;9.304;2023-06-14T11:46:51;97225.69;;;25.06;30.07
967;BME280;56108;48.730;9.304;2023-06-14T11:49:02;97216.66;;;25.12;30.70